Time;durP1;ratioP1;P1;durP2;ratioP2;P2;SDS_P1;SDS_P2;PMS_P1;PMS_P2;Temp;Humidity;BMP_temperature;BMP_pressure;BME280_temperature;BME280_humidity;BME280_pressure;Samples;Min_cycle;Max_cycle;Signal;HPM_P1;HPM_P2
2022/08/15 00:00:17;;;;;;;0.00;0.00;;;23.60;74.10;;;;;;5069255;28;20516;-67
2022/08/15 00:02:44;;;;;;;0.00;0.00;;;23.60;74.10;;;;;;5067586;28;20033;-67
2022/08/15 00:05:12;;;;;;;0.00;0.00;;;23.60;74.40;;;;;;5052238;28;20044;-67
2022/08/15 00:07:38;;;;;;;0.00;0.00;;;23.60;74.70;;;;;;5052741;28;20044;-67
2022/08/15 00:10:06;;;;;;;0.00;0.00;;;23.50;74.50;;;;;;5070832;28;20040;-67
2022/08/15 00:12:32;;;;;;;0.00;0.00;;;23.60;74.40;;;;;;5062629;28;20040;-67
2022/08/15 00:14:57;;;;;;;0.00;0.00;;;23.50;73.40;;;;;;5062003;28;20048;-67
2022/08/15 00:17:24;;;;;;;0.00;0.00;;;23.50;73.00;;;;;;5070021;28;20055;-68
2022/08/15 00:19:49;;;;;;;0.85;0.68;;;23.50;72.70;;;;;;5069687;28;20056;-67
2022/08/15 00:22:18;;;;;;;0.00;0.00;;;23.50;72.30;;;;;;5061328;28;20485;-67
2022/08/15 00:24:47;;;;;;;0.00;0.00;;;23.50;72.30;;;;;;5062566;28;20079;-67
2022/08/15 00:27:13;;;;;;;0.00;0.00;;;23.50;72.20;;;;;;5057021;28;20037;-67
2022/08/15 00:29:39;;;;;;;0.00;0.00;;;23.40;71.80;;;;;;5061060;28;20041;-68
2022/08/15 00:32:11;;;;;;;0.00;0.00;;;23.40;71.60;;;;;;5063002;28;20033;-67
2022/08/15 00:34:37;;;;;;;0.00;0.00;;;23.40;71.40;;;;;;5051990;28;20037;-67
2022/08/15 00:37:05;;;;;;;0.00;0.00;;;23.40;71.30;;;;;;5062681;28;20517;-67
2022/08/15 00:39:32;;;;;;;0.00;0.00;;;23.40;71.30;;;;;;5065856;28;20115;-67
2022/08/15 00:42:00;;;;;;;0.00;0.00;;;23.40;71.30;;;;;;5055229;28;20052;-67
2022/08/15 00:44:32;;;;;;;0.00;0.00;;;23.40;72.00;;;;;;5070300;28;20072;-67
2022/08/15 00:47:04;;;;;;;0.00;0.00;;;23.40;72.70;;;;;;5065717;28;20501;-67
2022/08/15 00:49:32;;;;;;;0.00;0.00;;;23.40;72.60;;;;;;5063916;28;20647;-67
2022/08/15 00:52:07;;;;;;;0.00;0.00;;;23.30;72.70;;;;;;5070443;28;20450;-67
2022/08/15 00:54:43;;;;;;;0.00;0.00;;;23.30;73.10;;;;;;5050784;28;20494;-67
2022/08/15 00:57:14;;;;;;;0.00;0.00;;;23.20;73.80;;;;;;5054707;28;20097;-67
2022/08/15 00:59:53;;;;;;;0.00;0.00;;;23.20;73.10;;;;;;5060608;28;20056;-67
2022/08/15 01:02:33;;;;;;;0.00;0.00;;;23.20;72.70;;;;;;5059270;28;20084;-67
2022/08/15 01:05:02;;;;;;;0.00;0.00;;;23.10;73.10;;;;;;5064030;28;20108;-67
2022/08/15 01:07:28;;;;;;;0.00;0.00;;;23.10;73.10;;;;;;5059110;28;20056;-67
2022/08/15 01:09:54;;;;;;;0.00;0.00;;;23.10;73.60;;;;;;5055307;28;20037;-67
2022/08/15 01:12:24;;;;;;;0.00;0.00;;;23.10;74.10;;;;;;5070212;28;20048;-68
2022/08/15 01:14:56;;;;;;;0.00;0.00;;;23.10;73.70;;;;;;5069423;28;20501;-67
2022/08/15 01:17:25;;;;;;;0.00;0.00;;;23.00;74.20;;;;;;5069972;28;20598;-67
2022/08/15 01:19:55;;;;;;;0.00;0.00;;;23.00;74.00;;;;;;5067111;28;20037;-67
2022/08/15 01:22:27;;;;;;;0.22;0.20;;;23.00;73.60;;;;;;5060386;28;20089;-67
2022/08/15 01:25:00;;;;;;;0.00;0.00;;;23.00;74.00;;;;;;5057434;28;20033;-67
2022/08/15 01:27:29;;;;;;;0.00;0.00;;;23.00;74.30;;;;;;5068504;28;20051;-67
2022/08/15 01:29:56;;;;;;;0.00;0.00;;;22.90;73.50;;;;;;5068083;28;20048;-67
2022/08/15 01:32:22;;;;;;;0.00;0.00;;;22.90;72.90;;;;;;5049242;28;20080;-67
2022/08/15 01:34:48;;;;;;;0.00;0.00;;;22.90;73.70;;;;;;5050641;28;20083;-68
2022/08/15 01:37:13;;;;;;;0.00;0.00;;;22.90;73.70;;;;;;5067989;28;20055;-68
2022/08/15 01:39:47;;;;;;;0.00;0.00;;;22.90;73.70;;;;;;5066927;28;20060;-67
2022/08/15 01:42:28;;;;;;;0.00;0.00;;;22.80;73.90;;;;;;5058385;28;20119;-67
2022/08/15 01:45:06;;;;;;;0.00;0.00;;;22.90;73.90;;;;;;5069291;28;20072;-67
2022/08/15 01:47:40;;;;;;;0.00;0.00;;;22.80;74.00;;;;;;5053697;28;20048;-67
2022/08/15 01:50:28;;;;;;;0.00;0.00;;;22.80;74.00;;;;;;5064548;28;20067;-67
2022/08/15 01:53:18;;;;;;;0.00;0.00;;;22.80;73.50;;;;;;5061390;28;20541;-67
2022/08/15 01:56:07;;;;;;;0.00;0.00;;;22.70;73.80;;;;;;5049578;28;20129;-67
2022/08/15 01:58:37;;;;;;;0.50;0.50;;;22.70;73.80;;;;;;5049197;28;20124;-67
2022/08/15 02:01:11;;;;;;;1.20;0.52;;;22.70;73.80;;;;;;5054114;28;20062;-67
2022/08/15 02:03:39;;;;;;;0.00;0.00;;;22.60;74.00;;;;;;5049791;28;20041;-67
2022/08/15 02:06:11;;;;;;;0.00;0.00;;;22.60;74.40;;;;;;5050479;28;20102;-67
2022/08/15 02:08:37;;;;;;;0.00;0.00;;;22.60;74.50;;;;;;5050227;28;20040;-67
2022/08/15 02:11:09;;;;;;;0.00;0.00;;;22.50;75.00;;;;;;5053470;28;20043;-68
2022/08/15 02:13:36;;;;;;;0.00;0.00;;;22.50;74.40;;;;;;5059391;28;20037;-67
2022/08/15 02:16:02;;;;;;;0.00;0.00;;;22.50;73.90;;;;;;5053274;28;20083;-67
2022/08/15 02:18:28;;;;;;;0.00;0.00;;;22.50;74.40;;;;;;5065631;28;20044;-68
2022/08/15 02:20:54;;;;;;;0.10;0.10;;;22.50;74.20;;;;;;5066507;28;20160;-67
2022/08/15 02:23:20;;;;;;;0.10;0.10;;;22.50;74.00;;;;;;5049354;28;20847;-67
2022/08/15 02:25:48;;;;;;;0.00;0.00;;;22.30;74.20;;;;;;5049308;28;20045;-67
2022/08/15 02:28:14;;;;;;;0.00;0.00;;;22.30;74.30;;;;;;5049318;28;20055;-67
2022/08/15 02:30:42;;;;;;;0.00;0.00;;;22.30;74.70;;;;;;5067436;28;20044;-67
2022/08/15 02:33:07;;;;;;;0.20;0.10;;;22.30;75.00;;;;;;5064521;28;20045;-67
2022/08/15 02:35:33;;;;;;;0.00;0.00;;;22.30;75.80;;;;;;5056962;28;20045;-67
2022/08/15 02:38:01;;;;;;;0.00;0.00;;;22.30;75.90;;;;;;5066987;28;20393;-67
2022/08/15 02:40:28;;;;;;;0.00;0.00;;;22.30;75.70;;;;;;5056796;28;20049;-67
2022/08/15 02:42:54;;;;;;;0.00;0.00;;;22.30;75.70;;;;;;5049275;28;20067;-67
2022/08/15 02:45:19;;;;;;;0.00;0.00;;;22.20;75.40;;;;;;5066429;28;20446;-68
2022/08/15 02:47:45;;;;;;;0.00;0.00;;;22.20;75.40;;;;;;5054539;28;20901;-67
2022/08/15 02:50:14;;;;;;;0.00;0.00;;;22.20;76.60;;;;;;5051820;28;20056;-67
2022/08/15 02:52:42;;;;;;;0.00;0.00;;;22.20;76.30;;;;;;5049471;28;20037;-68
2022/08/15 02:55:10;;;;;;;0.22;0.20;;;22.20;76.00;;;;;;5048773;28;20163;-68
2022/08/15 02:57:37;;;;;;;0.00;0.00;;;22.20;76.00;;;;;;5056096;28;20040;-67
2022/08/15 03:00:08;;;;;;;0.00;0.00;;;22.20;76.10;;;;;;5069088;28;20047;-67
2022/08/15 03:02:49;;;;;;;0.00;0.00;;;22.20;76.70;;;;;;5058316;28;20102;-67
2022/08/15 03:05:15;;;;;;;0.00;0.00;;;22.20;76.30;;;;;;5049520;28;20045;-67
2022/08/15 03:07:41;;;;;;;0.00;0.00;;;22.20;76.30;;;;;;5056779;28;20166;-67
2022/08/15 03:10:07;;;;;;;0.00;0.00;;;22.20;76.40;;;;;;5067748;28;20113;-68
2022/08/15 03:12:33;;;;;;;0.00;0.00;;;22.20;76.40;;;;;;5058723;28;20041;-68
2022/08/15 03:15:00;;;;;;;0.00;0.00;;;22.20;76.20;;;;;;5056216;28;20045;-67
2022/08/15 03:17:26;;;;;;;0.63;0.20;;;22.20;76.40;;;;;;5057888;28;20120;-67
2022/08/15 03:19:53;;;;;;;0.00;0.00;;;22.20;76.60;;;;;;5048587;28;20464;-67
2022/08/15 03:22:19;;;;;;;0.00;0.00;;;22.10;76.40;;;;;;5059053;28;20405;-67
2022/08/15 03:24:45;;;;;;;0.00;0.00;;;22.20;76.70;;;;;;5057178;28;20052;-67
2022/08/15 03:27:10;;;;;;;0.00;0.00;;;22.10;76.50;;;;;;5056657;28;20094;-67
2022/08/15 03:29:36;;;;;;;0.00;0.00;;;22.10;76.60;;;;;;5068317;28;20047;-67
2022/08/15 03:32:10;;;;;;;0.00;0.00;;;22.10;76.30;;;;;;5071796;28;20047;-68
2022/08/15 03:34:36;;;;;;;0.00;0.00;;;22.10;76.40;;;;;;5072478;28;20050;-67
2022/08/15 03:37:01;;;;;;;0.00;0.00;;;22.10;76.10;;;;;;5067737;28;20036;-67
2022/08/15 03:39:27;;;;;;;0.00;0.00;;;22.10;75.90;;;;;;5072161;28;20159;-67
2022/08/15 03:41:53;;;;;;;0.08;0.08;;;22.10;75.80;;;;;;5059100;28;20049;-67
2022/08/15 03:44:18;;;;;;;0.00;0.00;;;22.00;75.60;;;;;;5069428;28;20042;-67
2022/08/15 03:46:44;;;;;;;0.00;0.00;;;22.00;75.70;;;;;;5055165;28;20033;-67
2022/08/15 03:49:10;;;;;;;0.00;0.00;;;22.00;75.50;;;;;;5061536;28;20041;-67
2022/08/15 03:51:36;;;;;;;0.00;0.00;;;22.00;75.60;;;;;;5051668;28;20037;-67
2022/08/15 03:54:02;;;;;;;0.00;0.00;;;22.00;75.60;;;;;;5051051;28;20045;-67
2022/08/15 03:56:31;;;;;;;0.00;0.00;;;21.90;75.30;;;;;;5067665;28;20057;-67
2022/08/15 03:58:58;;;;;;;0.00;0.00;;;21.90;75.30;;;;;;5068427;28;20081;-67
2022/08/15 04:01:31;;;;;;;0.10;0.10;;;21.90;75.30;;;;;;5067849;28;20040;-67
2022/08/15 04:03:57;;;;;;;0.00;0.00;;;21.90;75.20;;;;;;5064326;28;20119;-67
2022/08/15 04:06:25;;;;;;;0.00;0.00;;;21.90;75.10;;;;;;5068798;28;20187;-67
2022/08/15 04:08:52;;;;;;;0.00;0.00;;;21.80;75.10;;;;;;5052014;28;20048;-67
2022/08/15 04:11:21;;;;;;;0.00;0.00;;;21.80;74.90;;;;;;5052086;28;20046;-67
2022/08/15 04:13:47;;;;;;;0.00;0.00;;;21.80;74.90;;;;;;5051899;28;20037;-67
2022/08/15 04:16:14;;;;;;;0.00;0.00;;;21.80;75.00;;;;;;5056160;28;20048;-67
2022/08/15 04:18:40;;;;;;;0.00;0.00;;;21.80;75.60;;;;;;5056407;28;20045;-67
2022/08/15 04:21:08;;;;;;;0.00;0.00;;;21.80;75.30;;;;;;5049925;28;20037;-67
2022/08/15 04:23:34;;;;;;;0.00;0.00;;;21.80;75.70;;;;;;5063089;28;20119;-67
2022/08/15 04:26:01;;;;;;;0.00;0.00;;;21.80;75.70;;;;;;5066561;28;20467;-67
2022/08/15 04:28:31;;;;;;;0.00;0.00;;;21.80;75.60;;;;;;5066847;28;20155;-67
2022/08/15 04:30:59;;;;;;;0.00;0.00;;;21.70;75.70;;;;;;5063738;28;20190;-67
2022/08/15 04:33:27;;;;;;;0.00;0.00;;;21.70;75.60;;;;;;5054661;28;20040;-67
2022/08/15 04:36:00;;;;;;;0.00;0.00;;;21.70;75.90;;;;;;5070059;28;20043;-67
2022/08/15 04:38:26;;;;;;;0.00;0.00;;;21.70;76.00;;;;;;5062249;28;20075;-68
2022/08/15 04:40:53;;;;;;;0.00;0.00;;;21.70;76.10;;;;;;5051819;28;20048;-67
2022/08/15 04:43:20;;;;;;;0.00;0.00;;;21.70;76.10;;;;;;5070136;28;20048;-66
2022/08/15 04:45:46;;;;;;;0.00;0.00;;;21.80;75.90;;;;;;5061437;28;20052;-67
2022/08/15 04:48:15;;;;;;;0.00;0.00;;;21.80;75.80;;;;;;5057575;28;20036;-67
2022/08/15 04:50:44;;;;;;;0.10;0.10;;;21.80;76.00;;;;;;5064486;28;20045;-67
2022/08/15 04:53:11;;;;;;;0.00;0.00;;;21.80;76.00;;;;;;5064425;28;20040;-67
2022/08/15 04:55:41;;;;;;;0.00;0.00;;;21.80;76.20;;;;;;5051403;28;20550;-66
2022/08/15 04:58:09;;;;;;;0.00;0.00;;;21.80;76.20;;;;;;5060566;28;20033;-67
2022/08/15 05:00:37;;;;;;;0.08;0.08;;;21.90;76.10;;;;;;5051551;28;20045;-67
2022/08/15 05:03:08;;;;;;;0.00;0.00;;;21.90;75.80;;;;;;5055014;28;20123;-67
2022/08/15 05:05:37;;;;;;;0.35;0.28;;;21.90;75.80;;;;;;5062177;28;20115;-67
2022/08/15 05:08:02;;;;;;;0.00;0.00;;;22.00;76.10;;;;;;5063958;28;20047;-67
2022/08/15 05:10:29;;;;;;;0.00;0.00;;;22.00;75.90;;;;;;5059086;28;20790;-67
2022/08/15 05:12:54;;;;;;;0.00;0.00;;;22.00;75.90;;;;;;5056697;28;20045;-67
2022/08/15 05:15:21;;;;;;;0.00;0.00;;;22.00;75.80;;;;;;5054421;28;20041;-67
2022/08/15 05:17:48;;;;;;;0.00;0.00;;;22.00;75.60;;;;;;5049918;28;20524;-67
2022/08/15 05:20:17;;;;;;;0.00;0.00;;;22.00;75.90;;;;;;5052642;28;20041;-67
2022/08/15 05:22:52;;;;;;;0.00;0.00;;;22.00;76.00;;;;;;5061531;28;20029;-67
2022/08/15 05:25:18;;;;;;;0.00;0.00;;;22.00;76.00;;;;;;5064031;28;20073;-66
2022/08/15 05:27:43;;;;;;;0.00;0.00;;;22.00;76.00;;;;;;5062207;28;20060;-67
2022/08/15 05:30:09;;;;;;;0.00;0.00;;;22.00;75.70;;;;;;5063600;28;20082;-67
2022/08/15 05:32:35;;;;;;;0.00;0.00;;;22.00;75.50;;;;;;5069098;28;20493;-67
2022/08/15 05:35:00;;;;;;;0.10;0.10;;;22.00;75.30;;;;;;5068664;28;20036;-66
2022/08/15 05:37:28;;;;;;;0.00;0.00;;;22.00;75.20;;;;;;5056707;28;20037;-67
2022/08/15 05:39:54;;;;;;;0.00;0.00;;;22.10;75.10;;;;;;5060263;28;20091;-67
2022/08/15 05:42:40;;;;;;;0.00;0.00;;;22.10;75.10;;;;;;5070590;28;20052;-67
2022/08/15 05:45:15;;;;;;;0.00;0.00;;;22.10;75.10;;;;;;5057920;28;20041;-67
2022/08/15 05:48:08;;;;;;;0.00;0.00;;;22.10;75.20;;;;;;5049813;28;20090;-66
2022/08/15 05:50:43;;;;;;;0.00;0.00;;;22.10;75.20;;;;;;5062916;28;20048;-67
2022/08/15 05:53:32;;;;;;;0.00;0.00;;;22.20;75.30;;;;;;5069957;28;20086;-68
2022/08/15 05:56:27;;;;;;;0.00;0.00;;;22.20;75.20;;;;;;5065364;28;20064;-67
2022/08/15 05:58:59;;;;;;;0.00;0.00;;;22.30;75.10;;;;;;5068550;28;20472;-67
2022/08/15 06:01:36;;;;;;;0.15;0.15;;;22.30;74.80;;;;;;5049821;28;20072;-67
2022/08/15 06:04:09;;;;;;;2.10;1.23;;;22.40;74.50;;;;;;5049766;28;20544;-67
2022/08/15 06:06:38;;;;;;;0.00;0.00;;;22.40;74.70;;;;;;5050048;28;20048;-67
2022/08/15 06:09:25;;;;;;;0.00;0.00;;;22.50;74.90;;;;;;5050120;28;20045;-67
2022/08/15 06:11:54;;;;;;;0.00;0.00;;;22.50;74.90;;;;;;5054866;28;20968;-67
2022/08/15 06:14:30;;;;;;;0.00;0.00;;;22.60;74.80;;;;;;5051365;28;20041;-67
2022/08/15 06:17:02;;;;;;;0.32;0.32;;;22.60;74.50;;;;;;5062887;28;20048;-67
2022/08/15 06:19:37;;;;;;;0.00;0.00;;;22.50;74.10;;;;;;5049238;28;20437;-67
2022/08/15 06:22:09;;;;;;;0.00;0.00;;;22.60;74.10;;;;;;5052985;28;20072;-67
2022/08/15 06:25:09;;;;;;;0.00;0.00;;;22.70;73.80;;;;;;5055977;28;20041;-67
2022/08/15 06:28:12;;;;;;;0.00;0.00;;;22.70;73.70;;;;;;5049331;28;20453;-67
2022/08/15 06:30:50;;;;;;;0.00;0.00;;;22.80;73.70;;;;;;5057779;28;20044;-67
2022/08/15 06:33:40;;;;;;;0.00;0.00;;;22.80;73.60;;;;;;5059657;28;20049;-67
2022/08/15 06:36:12;;;;;;;0.00;0.00;;;22.90;73.40;;;;;;5048994;28;20053;-67
2022/08/15 06:38:50;;;;;;;0.00;0.00;;;22.90;73.40;;;;;;5060836;28;20048;-67
2022/08/15 06:41:50;;;;;;;0.00;0.00;;;23.00;73.00;;;;;;5069199;28;20044;-67
2022/08/15 06:44:17;;;;;;;0.00;0.00;;;23.00;73.10;;;;;;5069258;28;20094;-67
2022/08/15 06:46:43;;;;;;;0.00;0.00;;;23.00;73.00;;;;;;5068987;28;20512;-68
2022/08/15 06:49:12;;;;;;;0.00;0.00;;;23.10;73.00;;;;;;5068408;28;20040;-68
2022/08/15 06:51:39;;;;;;;0.00;0.00;;;23.10;72.90;;;;;;5069158;28;20040;-68
2022/08/15 06:54:22;;;;;;;0.00;0.00;;;23.20;72.60;;;;;;5063458;28;20048;-68
2022/08/15 06:57:00;;;;;;;0.00;0.00;;;23.30;72.50;;;;;;5057300;28;20044;-68
2022/08/15 06:59:59;;;;;;;0.00;0.00;;;23.30;72.50;;;;;;5051466;28;20055;-68
2022/08/15 07:02:43;;;;;;;0.00;0.00;;;23.50;72.40;;;;;;5052825;28;20060;-68
2022/08/15 07:05:15;;;;;;;0.00;0.00;;;23.50;72.00;;;;;;5052888;28;20051;-69
2022/08/15 07:07:43;;;;;;;0.00;0.00;;;23.60;71.90;;;;;;5061418;28;20501;-69
2022/08/15 07:10:41;;;;;;;0.00;0.00;;;23.60;71.90;;;;;;5052725;28;20044;-69
2022/08/15 07:13:16;;;;;;;0.00;0.00;;;23.70;71.70;;;;;;5052634;28;20045;-66
2022/08/15 07:15:58;;;;;;;0.00;0.00;;;23.80;71.60;;;;;;5058592;28;20041;-68
2022/08/15 07:18:29;;;;;;;0.00;0.00;;;23.80;71.40;;;;;;5070510;28;20051;-68
2022/08/15 07:21:02;;;;;;;0.00;0.00;;;23.80;71.50;;;;;;5072126;28;20072;-68
2022/08/15 07:23:30;;;;;;;0.00;0.00;;;23.90;71.50;;;;;;5072374;28;20046;-68
2022/08/15 07:26:04;;;;;;;0.13;0.13;;;23.90;71.00;;;;;;5070727;28;20090;-68
2022/08/15 07:28:33;;;;;;;0.00;0.00;;;24.00;71.10;;;;;;5071045;28;20493;-69
2022/08/15 07:31:12;;;;;;;0.10;0.10;;;24.00;71.20;;;;;;5066660;28;20072;-68
2022/08/15 07:33:43;;;;;;;0.00;0.00;;;24.10;71.10;;;;;;5062366;28;20048;-68
2022/08/15 07:36:24;;;;;;;0.00;0.00;;;24.10;70.80;;;;;;5072213;28;20770;-68
2022/08/15 07:38:51;;;;;;;0.00;0.00;;;24.20;71.00;;;;;;5060335;28;20398;-69
2022/08/15 07:41:21;;;;;;;0.00;0.00;;;24.20;71.10;;;;;;5050948;28;20573;-68
2022/08/15 07:43:48;;;;;;;0.00;0.00;;;24.30;70.90;;;;;;5052525;28;20060;-68
2022/08/15 07:46:22;;;;;;;0.00;0.00;;;24.30;70.80;;;;;;5068874;28;20033;-67
2022/08/15 07:49:07;;;;;;;0.20;0.20;;;24.30;70.90;;;;;;5054393;28;20102;-67
2022/08/15 07:51:41;;;;;;;0.00;0.00;;;24.40;70.70;;;;;;5067732;28;20048;-68
2022/08/15 07:54:37;;;;;;;0.22;0.15;;;24.40;70.60;;;;;;5051916;28;20041;-67
2022/08/15 07:57:06;;;;;;;0.00;0.00;;;24.40;70.30;;;;;;5059042;28;20095;-67
2022/08/15 07:59:36;;;;;;;0.10;0.10;;;24.40;70.20;;;;;;5070138;28;20056;-67
2022/08/15 08:02:20;;;;;;;0.00;0.00;;;24.40;69.90;;;;;;5070106;28;20028;-66
2022/08/15 08:04:46;;;;;;;0.10;0.10;;;24.50;69.90;;;;;;5070332;28;20045;-65
2022/08/15 08:07:25;;;;;;;0.00;0.00;;;24.50;69.20;;;;;;5058776;28;20056;-67
2022/08/15 08:10:00;;;;;;;0.00;0.00;;;24.50;68.90;;;;;;5050639;28;20094;-66
2022/08/15 08:12:41;;;;;;;0.00;0.00;;;24.50;69.30;;;;;;5053802;28;20045;-66
2022/08/15 08:15:20;;;;;;;0.00;0.00;;;24.50;69.40;;;;;;5055881;28;20047;-66
2022/08/15 08:17:56;;;;;;;0.00;0.00;;;24.60;68.90;;;;;;5058984;28;20099;-66
2022/08/15 08:20:41;;;;;;;0.00;0.00;;;24.70;68.90;;;;;;5052697;28;20052;-66
2022/08/15 08:23:16;;;;;;;0.10;0.10;;;24.80;68.90;;;;;;5052155;28;20043;-66
2022/08/15 08:26:18;;;;;;;0.00;0.00;;;24.80;68.60;;;;;;5054488;28;20091;-66
2022/08/15 08:29:14;;;;;;;0.22;0.20;;;24.90;68.40;;;;;;5051286;28;20494;-67
2022/08/15 08:32:02;;;;;;;0.57;0.10;;;25.10;68.60;;;;;;5063413;28;20048;-67
2022/08/15 08:35:00;;;;;;;0.00;0.00;;;25.10;68.30;;;;;;5059762;28;20045;-67
2022/08/15 08:37:59;;;;;;;0.00;0.00;;;25.20;67.10;;;;;;5059747;28;20049;-67
2022/08/15 08:43:54;;;;;;;0.00;0.00;;;25.50;67.20;;;;;;5064447;28;20076;-67
2022/08/15 08:46:39;;;;;;;0.05;0.05;;;25.50;66.60;;;;;;5058126;28;20502;-67
2022/08/15 08:49:30;;;;;;;0.00;0.00;;;25.60;66.60;;;;;;5050763;28;20107;-67
2022/08/15 08:52:14;;;;;;;0.00;0.00;;;25.60;66.40;;;;;;5023214;28;20117;-67
2022/08/15 08:54:58;;;;;;;0.00;0.00;;;25.70;66.60;;;;;;5070112;28;20147;-65
2022/08/15 08:57:29;;;;;;;0.00;0.00;;;25.80;65.00;;;;;;5070664;28;20052;-66
2022/08/15 09:00:12;;;;;;;0.00;0.00;;;25.80;64.90;;;;;;5056672;28;20048;-67
2022/08/15 09:02:52;;;;;;;0.10;0.10;;;25.90;65.40;;;;;;5049382;28;20047;-66
2022/08/15 09:05:25;;;;;;;0.10;0.10;;;25.90;65.00;;;;;;5057262;28;20032;-66
2022/08/15 09:07:58;;;;;;;0.03;0.03;;;26.00;65.60;;;;;;5069178;28;20125;-66
2022/08/15 09:10:32;;;;;;;0.00;0.00;;;26.00;65.80;;;;;;5065652;28;20510;-66
2022/08/15 09:15:48;;;;;;;1.27;0.63;;;26.00;67.20;;;;;;5050607;28;20041;-66
2022/08/15 09:18:19;;;;;;;1.65;0.73;;;26.10;66.80;;;;;;5050190;28;20049;-66
2022/08/15 09:20:46;;;;;;;0.00;0.00;;;26.10;66.70;;;;;;5057930;28;20093;-66
2022/08/15 09:23:13;;;;;;;0.17;0.17;;;26.20;67.30;;;;;;5069983;28;20421;-66
2022/08/15 09:26:07;;;;;;;0.15;0.15;;;26.30;66.50;;;;;;5068257;28;20477;-66
2022/08/15 09:28:37;;;;;;;0.00;0.00;;;26.40;66.80;;;;;;5063292;28;20655;-66
2022/08/15 09:31:14;;;;;;;0.00;0.00;;;26.50;66.40;;;;;;5063822;28;20037;-67
2022/08/15 09:33:52;;;;;;;0.00;0.00;;;26.50;66.10;;;;;;5050529;28;20050;-67
2022/08/15 09:36:54;;;;;;;0.00;0.00;;;26.50;66.50;;;;;;5053328;28;20068;-67
2022/08/15 09:39:42;;;;;;;0.00;0.00;;;26.60;66.80;;;;;;5056181;28;20091;-67
2022/08/15 09:42:22;;;;;;;0.25;0.25;;;26.60;66.60;;;;;;5056718;28;20040;-66
2022/08/15 09:45:19;;;;;;;0.00;0.00;;;26.60;66.90;;;;;;5056075;28;20399;-67
2022/08/15 09:48:03;;;;;;;0.00;0.00;;;26.70;67.70;;;;;;5058495;28;21292;-67
2022/08/15 09:50:59;;;;;;;1.08;0.88;;;26.80;68.70;;;;;;5059323;28;20102;-67
2022/08/15 09:53:34;;;;;;;0.10;0.10;;;26.60;70.10;;;;;;5062256;28;20387;-67
2022/08/15 09:56:05;;;;;;;0.85;0.75;;;26.60;70.60;;;;;;5060423;28;20049;-67
2022/08/15 09:58:51;;;;;;;0.00;0.00;;;26.50;71.10;;;;;;5057575;28;20087;-67
2022/08/15 10:01:31;;;;;;;0.90;0.25;;;26.50;69.80;;;;;;5056885;28;20409;-67
2022/08/15 10:04:03;;;;;;;0.57;0.57;;;26.40;70.10;;;;;;5057691;28;20830;-66
2022/08/15 10:06:48;;;;;;;3.53;0.40;;;26.30;70.60;;;;;;5048455;28;20517;-67
2022/08/15 10:09:35;;;;;;;0.05;0.05;;;26.30;70.60;;;;;;5049270;28;20063;-67
2022/08/15 10:12:06;;;;;;;0.30;0.30;;;26.30;70.30;;;;;;5062916;28;20047;-66
2022/08/15 10:14:56;;;;;;;0.00;0.00;;;26.10;70.40;;;;;;5069420;28;20044;-66
2022/08/15 10:17:37;;;;;;;0.00;0.00;;;26.10;70.50;;;;;;5058125;28;20052;-66
2022/08/15 10:20:15;;;;;;;0.00;0.00;;;26.10;70.30;;;;;;5049318;28;20493;-66
2022/08/15 10:22:59;;;;;;;0.32;0.32;;;26.20;69.80;;;;;;5062807;28;20053;-67
2022/08/15 10:25:36;;;;;;;0.00;0.00;;;26.10;70.10;;;;;;5054841;28;20098;-67
2022/08/15 10:28:11;;;;;;;0.10;0.10;;;26.20;70.20;;;;;;5047709;28;20041;-67
2022/08/15 10:30:39;;;;;;;0.77;0.25;;;26.20;68.50;;;;;;5059643;28;20075;-67
2022/08/15 10:33:33;;;;;;;0.00;0.00;;;26.20;68.30;;;;;;5068299;28;20055;-67
2022/08/15 10:36:13;;;;;;;0.30;0.30;;;26.10;68.10;;;;;;5066961;28;20534;-67
2022/08/15 10:38:50;;;;;;;0.00;0.00;;;26.20;68.30;;;;;;5057690;28;20056;-67
2022/08/15 10:41:45;;;;;;;0.00;0.00;;;26.20;68.50;;;;;;5067852;28;20048;-67
2022/08/15 10:44:30;;;;;;;0.00;0.00;;;26.20;67.90;;;;;;5047005;28;20067;-67
2022/08/15 10:47:02;;;;;;;0.05;0.05;;;26.30;68.00;;;;;;5047871;28;20132;-67
2022/08/15 10:49:51;;;;;;;0.05;0.05;;;26.30;67.40;;;;;;5048831;28;20037;-67
2022/08/15 10:52:23;;;;;;;0.10;0.10;;;26.30;67.10;;;;;;5053206;28;20099;-67
2022/08/15 10:55:03;;;;;;;0.08;0.08;;;26.30;66.60;;;;;;5068828;28;20128;-67
2022/08/15 10:57:48;;;;;;;0.25;0.25;;;26.30;66.50;;;;;;5068912;28;20098;-67
2022/08/15 11:00:38;;;;;;;0.15;0.15;;;26.30;66.40;;;;;;5068031;28;20048;-67
2022/08/15 11:03:10;;;;;;;0.00;0.00;;;26.40;65.90;;;;;;5068414;28;20880;-67
2022/08/15 11:05:36;;;;;;;0.00;0.00;;;26.40;66.30;;;;;;5068852;28;20054;-67
2022/08/15 11:08:02;;;;;;;0.00;0.00;;;26.40;66.50;;;;;;5068951;28;20040;-67
2022/08/15 11:10:30;;;;;;;0.03;0.03;;;26.40;66.00;;;;;;5068261;28;20058;-67
2022/08/15 11:13:06;;;;;;;4.28;0.60;;;26.30;65.10;;;;;;5068740;28;20048;-67
2022/08/15 11:15:45;;;;;;;0.03;0.03;;;26.30;65.30;;;;;;5062880;28;20045;-67
2022/08/15 11:18:11;;;;;;;0.00;0.00;;;26.30;66.00;;;;;;5048787;28;20052;-67
2022/08/15 11:20:50;;;;;;;1.38;0.90;;;26.20;65.60;;;;;;5049093;28;20045;-67
2022/08/15 11:23:32;;;;;;;0.00;0.00;;;26.20;65.90;;;;;;5049232;28;20086;-67
2022/08/15 11:25:58;;;;;;;0.00;0.00;;;26.20;66.10;;;;;;5052693;28;20033;-67
2022/08/15 11:28:25;;;;;;;0.25;0.20;;;26.10;66.00;;;;;;5050007;28;20051;-67
2022/08/15 11:31:01;;;;;;;0.00;0.00;;;26.10;66.00;;;;;;5054028;28;20044;-67
2022/08/15 11:33:40;;;;;;;0.00;0.00;;;26.00;66.70;;;;;;5053903;28;20045;-67
2022/08/15 11:36:19;;;;;;;0.00;0.00;;;26.20;67.20;;;;;;5050593;28;20045;-67
2022/08/15 11:38:51;;;;;;;0.68;0.68;;;26.30;67.10;;;;;;5068501;28;20040;-67
2022/08/15 11:41:24;;;;;;;0.73;0.25;;;26.30;66.30;;;;;;5063141;28;20056;-67
2022/08/15 11:43:51;;;;;;;0.00;0.00;;;26.50;66.90;;;;;;5064093;28;20510;-67
2022/08/15 11:46:19;;;;;;;0.55;0.43;;;26.50;65.50;;;;;;5071524;28;20083;-67
2022/08/15 11:49:07;;;;;;;0.52;0.20;;;26.50;62.70;;;;;;5065745;28;20084;-67
2022/08/15 11:51:42;;;;;;;0.10;0.10;;;26.50;63.00;;;;;;5052527;28;20048;-67
2022/08/15 11:54:14;;;;;;;0.00;0.00;;;26.40;62.10;;;;;;5052104;28;20037;-67
2022/08/15 11:57:07;;;;;;;0.20;0.20;;;26.50;61.50;;;;;;5051600;28;20053;-67
2022/08/15 11:59:38;;;;;;;0.68;0.43;;;26.20;61.20;;;;;;5049990;28;20681;-67
2022/08/15 12:02:29;;;;;;;0.00;0.00;;;26.20;62.10;;;;;;5052018;28;20044;-67
2022/08/15 12:04:55;;;;;;;0.05;0.05;;;26.20;61.90;;;;;;5051947;28;20861;-67
2022/08/15 12:07:30;;;;;;;0.00;0.00;;;26.10;61.20;;;;;;5051746;28;20044;-67
2022/08/15 12:09:57;;;;;;;0.00;0.00;;;26.00;59.00;;;;;;5052913;28;20052;-67
2022/08/15 12:12:37;;;;;;;0.00;0.00;;;26.00;60.00;;;;;;5042059;28;20044;-67
2022/08/15 12:15:10;;;;;;;0.00;0.00;;;26.00;59.30;;;;;;5063183;28;20175;-67
2022/08/15 12:17:35;;;;;;;0.00;0.00;;;26.00;58.80;;;;;;5054920;28;20045;-67
2022/08/15 12:20:04;;;;;;;0.17;0.15;;;26.00;59.40;;;;;;5050748;28;20041;-67
2022/08/15 12:22:39;;;;;;;0.00;0.00;;;26.00;59.60;;;;;;5059392;28;20053;-67
2022/08/15 12:25:07;;;;;;;0.00;0.00;;;26.00;60.20;;;;;;5057849;28;20048;-67
2022/08/15 12:27:37;;;;;;;0.00;0.00;;;26.00;60.50;;;;;;5066418;28;20055;-67
2022/08/15 12:30:06;;;;;;;0.10;0.10;;;26.00;59.80;;;;;;5063951;28;20497;-67
2022/08/15 12:32:32;;;;;;;0.00;0.00;;;26.00;60.10;;;;;;5052432;28;20131;-67
2022/08/15 12:34:59;;;;;;;0.00;0.00;;;26.00;60.50;;;;;;5057471;28;20041;-67
2022/08/15 12:37:26;;;;;;;0.20;0.20;;;25.90;60.70;;;;;;5068706;28;20042;-67
2022/08/15 12:39:58;;;;;;;0.15;0.15;;;25.90;60.60;;;;;;5069074;28;20446;-67
2022/08/15 12:42:33;;;;;;;0.00;0.00;;;25.90;61.00;;;;;;5068603;28;20124;-67
2022/08/15 12:45:05;;;;;;;0.00;0.00;;;25.80;60.10;;;;;;5068882;28;20044;-67
2022/08/15 12:47:32;;;;;;;0.00;0.00;;;25.80;59.20;;;;;;5068412;28;20113;-67
2022/08/15 12:50:04;;;;;;;0.00;0.00;;;25.90;59.00;;;;;;5068746;28;20581;-67
2022/08/15 12:52:30;;;;;;;0.20;0.20;;;26.00;59.20;;;;;;5049795;28;20081;-67
2022/08/15 12:54:57;;;;;;;0.00;0.00;;;26.10;58.80;;;;;;5060214;28;20040;-67
2022/08/15 12:57:28;;;;;;;0.00;0.00;;;26.30;58.10;;;;;;5060684;28;20763;-67
2022/08/15 12:59:53;;;;;;;0.10;0.10;;;26.40;57.70;;;;;;5058014;28;20113;-67
2022/08/15 13:02:19;;;;;;;0.00;0.00;;;26.50;57.70;;;;;;5058548;28;20044;-67
2022/08/15 13:04:50;;;;;;;0.88;0.82;;;26.70;56.00;;;;;;5060737;28;20041;-67
2022/08/15 13:07:17;;;;;;;;;;;26.90;53.70;;;;;;5061978;28;20083;-67
2022/08/15 13:09:45;;;;;;;0.00;0.00;;;27.00;53.40;;;;;;5061825;28;19971;-67
2022/08/15 13:12:12;;;;;;;0.00;0.00;;;27.10;53.40;;;;;;5057069;28;20041;-67
2022/08/15 13:14:38;;;;;;;0.10;0.10;;;27.30;53.30;;;;;;5058020;28;20033;-67
2022/08/15 13:17:05;;;;;;;0.00;0.00;;;27.50;54.00;;;;;;5041351;28;20114;-67
2022/08/15 13:23:34;;;;;;;0.05;0.05;;;27.90;54.60;;;;;;5055906;28;20423;-67
2022/08/15 13:25:07;;;;;;;0.00;0.00;;;28.30;55.00;;;;;;5056184;28;20045;-67
2022/08/15 13:27:33;;;;;;;0.08;0.08;;;28.50;54.30;;;;;;5057827;28;20037;-67